Time;durP1;ratioP1;P1;durP2;ratioP2;P2;SDS_P1;SDS_P2;PMS_P1;PMS_P2;Temp;Humidity;BMP_temperature;BMP_pressure;BME280_temperature;BME280_humidity;BME280_pressure;Samples;Min_cycle;Max_cycle;Signal;HPM_P1;HPM_P2
2023/05/28 00:00:16;;;;;;;0.00;0.00;;;;;;;19.54;91.22;102065.47;10474264;28;20136;-80
2023/05/28 00:05:19;;;;;;;0.03;0.03;;;;;;;18.58;98.66;102068.03;10450118;28;20053;-80
2023/05/28 00:10:20;;;;;;;0.10;0.10;;;;;;;18.21;99.59;102078.03;10446034;28;20041;-80
2023/05/28 00:15:22;;;;;;;0.17;0.13;;;;;;;19.21;88.82;102064.34;10444479;28;20045;-80
2023/05/28 00:20:25;;;;;;;0.00;0.00;;;;;;;19.09;91.37;102055.53;10477584;28;20088;-80
2023/05/28 00:25:27;;;;;;;1.00;0.88;;;;;;;19.41;88.13;102043.59;10470906;28;20102;-80
2023/05/28 00:30:29;;;;;;;0.20;0.20;;;;;;;18.49;94.06;102049.69;10476431;28;20074;-80
2023/05/28 00:35:31;;;;;;;0.10;0.10;;;;;;;18.74;93.22;102052.53;10455489;28;20051;-80
2023/05/28 00:40:32;;;;;;;0.20;0.17;;;;;;;18.33;94.62;102059.94;10456181;28;20060;-80
2023/05/28 00:45:34;;;;;;;0.17;0.13;;;;;;;17.60;97.94;102068.47;10453705;28;20048;-80
2023/05/28 00:50:38;;;;;;;0.50;0.30;;;;;;;17.99;97.04;102069.91;10437179;28;20040;-80
2023/05/28 00:55:40;;;;;;;0.40;0.40;;;;;;;17.53;99.90;102079.66;10443536;28;20048;-80
2023/05/28 01:00:45;;;;;;;0.80;0.28;;;;;;;18.02;98.72;102069.13;10464744;28;20051;-80
2023/05/28 01:05:47;;;;;;;0.40;0.30;;;;;;;18.24;99.43;102076.34;10453331;28;20143;-80
2023/05/28 01:10:49;;;;;;;1.65;0.52;;;;;;;18.05;100.00;102075.25;10456355;28;20056;-80
2023/05/28 01:15:51;;;;;;;0.25;0.25;;;;;;;18.34;100.00;102063.41;10437717;28;20041;-80
2023/05/28 01:20:54;;;;;;;0.55;0.45;;;;;;;18.05;100.00;102067.44;10460052;28;20048;-80
2023/05/28 01:25:59;;;;;;;0.20;0.20;;;;;;;17.82;100.00;102069.66;10460922;28;20071;-80
2023/05/28 01:31:00;;;;;;;0.28;0.28;;;;;;;18.10;100.00;102066.59;10443810;28;20045;-80
2023/05/28 01:36:07;;;;;;;4.72;1.02;;;;;;;18.36;100.00;102069.53;10464079;28;20048;-80
2023/05/28 01:41:09;;;;;;;2.42;0.60;;;;;;;17.91;100.00;102066.28;10437479;28;20483;-80
2023/05/28 01:46:12;;;;;;;0.45;0.20;;;;;;;17.77;100.00;102069.59;10484202;28;20506;-80
2023/05/28 01:51:21;;;;;;;2.53;1.42;;;;;;;17.49;100.00;102072.63;10486727;28;20118;-81
2023/05/28 01:56:22;;;;;;;1.58;0.82;;;;;;;17.77;100.00;102061.78;10452470;28;20468;-80
2023/05/28 02:01:32;;;;;;;0.65;0.47;;;;;;;18.47;100.00;102048.78;10438638;28;20049;-80
2023/05/28 02:06:40;;;;;;;0.08;0.08;;;;;;;18.55;100.00;102045.41;10455241;28;20067;-80
2023/05/28 02:11:42;;;;;;;0.25;0.15;;;;;;;18.45;100.00;102040.94;10441445;28;20376;-80
2023/05/28 02:16:48;;;;;;;0.65;0.52;;;;;;;19.41;97.67;102027.91;10472080;28;20040;-80
2023/05/28 02:21:49;;;;;;;0.80;0.20;;;;;;;18.84;100.00;102036.13;10475924;28;20103;-80
2023/05/28 02:26:53;;;;;;;0.30;0.30;;;;;;;18.90;100.00;102025.72;10454101;28;20492;-80
2023/05/28 02:31:55;;;;;;;0.15;0.15;;;;;;;18.83;98.85;102035.25;10445936;28;20041;-80
2023/05/28 02:36:57;;;;;;;0.40;0.30;;;;;;;18.02;100.00;102040.44;10444451;28;20049;-81
2023/05/28 02:41:58;;;;;;;0.00;0.00;;;;;;;17.69;100.00;102045.13;10481142;28;20055;-81
2023/05/28 02:47:00;;;;;;;1.38;0.52;;;;;;;17.74;100.00;102038.28;10473156;28;20067;-80
2023/05/28 02:52:02;;;;;;;1.23;0.50;;;;;;;17.91;100.00;102048.03;10468798;28;20041;-80
2023/05/28 02:57:12;;;;;;;0.32;0.32;;;;;;;17.53;100.00;102049.25;10456817;28;20407;-80
2023/05/28 03:02:14;;;;;;;0.95;0.73;;;;;;;17.53;100.00;102056.22;10460418;28;20052;-80
2023/05/28 03:07:16;;;;;;;0.38;0.28;;;;;;;17.25;100.00;102059.25;10482176;28;20135;-80
2023/05/28 03:12:19;;;;;;;0.25;0.20;;;;;;;17.89;100.00;102052.38;10468303;28;20068;-80
2023/05/28 03:17:21;;;;;;;1.35;0.85;;;;;;;18.15;100.00;102044.06;10461044;28;20041;-80
2023/05/28 03:22:22;;;;;;;0.35;0.20;;;;;;;18.76;100.00;102032.56;10476766;28;20095;-79
2023/05/28 03:27:24;;;;;;;1.10;0.60;;;;;;;18.53;100.00;102041.03;10450330;28;20080;-80
2023/05/28 03:32:26;;;;;;;0.85;0.38;;;;;;;17.17;100.00;102054.75;10471160;28;20053;-81
2023/05/28 03:37:28;;;;;;;0.15;0.10;;;;;;;17.39;100.00;102059.44;10469498;28;20037;-81
2023/05/28 03:42:30;;;;;;;0.40;0.20;;;;;;;17.64;100.00;102056.38;10485085;28;20048;-80
2023/05/28 03:47:32;;;;;;;1.02;0.15;;;;;;;18.19;100.00;102056.28;10463185;28;20571;-80
2023/05/28 03:52:34;;;;;;;0.08;0.08;;;;;;;17.83;100.00;102052.31;10460305;28;20045;-80
2023/05/28 03:57:36;;;;;;;0.88;0.63;;;;;;;17.95;100.00;102052.50;10461639;28;20041;-80
2023/05/28 04:02:39;;;;;;;0.22;0.22;;;;;;;17.95;100.00;102057.72;10472633;28;20573;-80
2023/05/28 04:07:41;;;;;;;1.27;0.38;;;;;;;18.10;100.00;102056.16;10455467;28;20043;-80
2023/05/28 04:12:42;;;;;;;1.75;0.63;;;;;;;18.11;100.00;102042.28;10474184;28;20144;-80
2023/05/28 04:17:44;;;;;;;0.10;0.10;;;;;;;18.76;100.00;102058.66;10441257;28;20124;-80
2023/05/28 04:22:47;;;;;;;0.00;0.00;;;;;;;18.22;100.00;102052.00;10449466;28;20056;-80
2023/05/28 04:27:48;;;;;;;0.73;0.45;;;;;;;18.04;100.00;102057.84;10483622;28;20041;-80
2023/05/28 04:32:52;;;;;;;0.60;0.40;;;;;;;19.17;100.00;102055.63;10439268;28;20052;-80
2023/05/28 04:37:53;;;;;;;0.98;0.43;;;;;;;19.03;100.00;102048.50;10437502;28;20049;-80
2023/05/28 04:42:55;;;;;;;0.60;0.60;;;;;;;19.08;100.00;102055.53;10455590;28;20048;-80
2023/05/28 04:48:01;;;;;;;0.10;0.08;;;;;;;18.75;100.00;102069.97;10463654;28;20105;-80
2023/05/28 04:53:03;;;;;;;0.88;0.80;;;;;;;18.92;100.00;102071.06;10447236;28;20053;-80
2023/05/28 04:58:04;;;;;;;1.25;0.73;;;;;;;19.11;100.00;102066.00;10475941;28;20068;-81
2023/05/28 05:03:06;;;;;;;0.20;0.20;;;;;;;19.50;100.00;102062.84;10445500;28;20135;-80
2023/05/28 05:08:09;;;;;;;1.95;0.65;;;;;;;18.86;100.00;102070.97;10451166;28;20522;-82
2023/05/28 05:13:10;;;;;;;0.22;0.22;;;;;;;19.37;100.00;102063.59;10473020;28;20044;-80
2023/05/28 05:18:12;;;;;;;0.55;0.40;;;;;;;19.74;100.00;102065.59;10480099;28;20078;-80
2023/05/28 05:23:14;;;;;;;0.30;0.30;;;;;;;19.96;100.00;102085.81;10491290;28;20048;-80
2023/05/28 05:28:21;;;;;;;0.32;0.25;;;;;;;19.82;100.00;102082.22;10453020;28;20488;-80
2023/05/28 05:33:23;;;;;;;0.73;0.52;;;;;;;19.80;100.00;102073.47;10438347;28;20492;-81
2023/05/28 05:38:54;;;;;;;1.40;1.10;;;;;;;20.29;100.00;102078.97;10463764;28;20045;-80
2023/05/28 05:44:08;;;;;;;16.55;1.13;;;;;;;21.01;100.00;102082.69;10446253;28;20045;-81
2023/05/28 05:49:10;;;;;;;0.85;0.52;;;;;;;21.55;100.00;102071.34;10446606;28;20522;-81
2023/05/28 05:54:12;;;;;;;0.22;0.20;;;;;;;20.92;100.00;102086.19;10466503;28;20040;-81
2023/05/28 05:59:15;;;;;;;1.77;0.40;;;;;;;20.31;100.00;102101.69;10474080;28;20581;-81
2023/05/28 06:04:17;;;;;;;0.55;0.40;;;;;;;20.59;100.00;102082.59;10475045;28;20049;-80
2023/05/28 06:09:43;;;;;;;0.38;0.38;;;;;;;20.31;100.00;102085.97;10452317;28;20061;-81
2023/05/28 06:14:52;;;;;;;0.32;0.22;;;;;;;20.24;100.00;102085.09;10480101;28;20132;-81
2023/05/28 06:19:54;;;;;;;3.03;0.82;;;;;;;21.81;100.00;102068.72;10451032;28;20113;-81
2023/05/28 06:24:56;;;;;;;0.75;0.68;;;;;;;22.12;100.00;102072.97;10473359;28;20097;-81
2023/05/28 06:29:58;;;;;;;0.10;0.00;;;;;;;21.91;100.00;102071.31;10477033;28;20073;-81
2023/05/28 06:35:00;;;;;;;0.20;0.20;;;;;;;22.43;100.00;102067.63;10450328;28;21027;-80
2023/05/28 06:40:06;;;;;;;0.85;0.52;;;;;;;23.64;97.63;102062.38;10451374;28;20056;-80
2023/05/28 06:45:09;;;;;;;0.75;0.75;;;;;;;22.28;100.00;102079.06;10474694;28;20061;-80
2023/05/28 06:50:10;;;;;;;3.95;0.88;;;;;;;22.37;100.00;102084.28;10448414;28;20138;-81
2023/05/28 06:55:12;;;;;;;0.30;0.20;;;;;;;24.32;95.25;102072.09;10469201;28;20143;-81
2023/05/28 07:00:27;;;;;;;0.47;0.30;;;;;;;24.90;93.23;102073.97;10448377;28;20045;-81
2023/05/28 07:05:40;;;;;;;0.30;0.28;;;;;;;23.33;95.29;102086.31;10446458;28;20044;-81
2023/05/28 07:10:43;;;;;;;1.10;0.80;;;;;;;24.20;92.46;102082.81;10481924;28;20037;-81
2023/05/28 07:15:45;;;;;;;4.80;1.48;;;;;;;23.61;93.57;102093.94;10452443;28;20045;-82
2023/05/28 07:20:47;;;;;;;0.85;0.50;;;;;;;24.90;88.40;102090.66;10446973;28;20091;-80
2023/05/28 07:25:55;;;;;;;0.47;0.32;;;;;;;24.79;89.39;102089.94;10468167;28;20052;-81
2023/05/28 07:30:57;;;;;;;1.08;0.82;;;;;;;24.06;92.08;102097.00;10456786;28;20556;-81
2023/05/28 07:36:00;;;;;;;0.68;0.45;;;;;;;25.29;89.49;102088.25;10452785;28;20052;-81
2023/05/28 07:41:02;;;;;;;0.55;0.50;;;;;;;24.13;89.52;102107.47;10441748;28;20052;-81
2023/05/28 07:46:14;;;;;;;7.65;0.88;;;;;;;25.02;87.38;102110.66;10467124;28;20072;-80
2023/05/28 07:51:20;;;;;;;0.50;0.30;;;;;;;25.94;86.69;102097.66;10436289;28;20128;-80
2023/05/28 07:56:45;;;;;;;3.05;0.95;;;;;;;25.59;86.39;102107.09;10446054;28;20053;-82
2023/05/28 08:01:54;;;;;;;0.65;0.35;;;;;;;26.10;85.38;102103.53;10442328;28;20049;-80
2023/05/28 08:06:56;;;;;;;0.60;0.60;;;;;;;25.34;86.94;102102.25;10466531;28;20045;-81
2023/05/28 08:12:01;;;;;;;1.70;0.98;;;;;;;25.81;85.14;102109.34;10460542;28;20061;-81
2023/05/28 08:17:05;;;;;;;1.23;0.50;;;;;;;26.01;84.71;102102.81;10469626;28;20064;-81
2023/05/28 08:22:33;;;;;;;0.40;0.30;;;;;;;25.71;81.96;102100.72;10452377;28;20088;-81
2023/05/28 08:27:35;;;;;;;1.20;0.50;;;;;;;28.00;77.46;102089.28;10432397;28;20144;-81
2023/05/28 08:32:37;;;;;;;0.28;0.20;;;;;;;26.98;77.03;102098.09;10430951;28;20041;-81
2023/05/28 08:37:39;;;;;;;1.27;0.43;;;;;;;26.55;76.15;102099.06;10450101;28;20060;-82
2023/05/28 08:42:49;;;;;;;1.60;0.70;;;;;;;27.94;70.91;102094.78;10462976;28;20127;-82
2023/05/28 08:47:52;;;;;;;0.20;0.20;;;;;;;28.67;74.16;102080.25;10451365;28;20411;-81
2023/05/28 08:53:00;;;;;;;0.40;0.40;;;;;;;26.94;74.82;102087.63;10431842;28;20045;-82
2023/05/28 08:58:03;;;;;;;0.70;0.20;;;;;;;27.19;74.47;102080.84;10458830;28;20036;-82
2023/05/28 09:03:07;;;;;;;3.35;0.88;;;;;;;28.36;69.73;102070.59;10436665;28;20420;-81
2023/05/28 09:08:12;;;;;;;0.20;0.13;;;;;;;27.04;72.74;102075.94;10426609;28;20071;-81
2023/05/28 09:13:13;;;;;;;1.17;0.38;;;;;;;28.96;66.68;102060.78;10435414;28;20045;-82
2023/05/28 09:18:20;;;;;;;0.15;0.10;;;;;;;31.21;64.60;102055.00;10451013;28;20041;-81
2023/05/28 09:23:21;;;;;;;0.20;0.20;;;;;;;29.64;63.93;102062.03;10459053;28;20048;-81
2023/05/28 09:28:48;;;;;;;0.85;0.63;;;;;;;30.70;65.21;102050.00;10444195;28;20127;-80
2023/05/28 09:33:50;;;;;;;0.38;0.20;;;;;;;28.83;64.02;102063.88;10446285;28;20053;-81
2023/05/28 09:38:52;;;;;;;0.30;0.10;;;;;;;30.30;60.20;102056.88;10451626;28;20063;-81
2023/05/28 09:43:59;;;;;;;0.47;0.30;;;;;;;29.24;63.39;102054.50;10447408;28;20048;-82
2023/05/28 09:49:02;;;;;;;1.30;1.02;;;;;;;30.19;60.73;102057.31;10432518;28;20086;-83
2023/05/28 09:54:08;;;;;;;1.55;0.30;;;;;;;31.00;55.95;102046.97;10439908;28;20045;-81
2023/05/28 09:59:12;;;;;;;0.52;0.52;;;;;;;28.67;60.55;102064.34;10431319;28;20060;-82
2023/05/28 10:04:17;;;;;;;1.02;0.40;;;;;;;28.42;61.62;102059.78;10435161;28;20057;-81
2023/05/28 10:09:19;;;;;;;1.33;0.93;;;;;;;28.25;61.20;102056.81;10460118;28;20472;-81
2023/05/28 10:14:22;;;;;;;0.45;0.20;;;;;;;28.54;60.63;102052.38;10450990;28;20119;-81
2023/05/28 10:19:25;;;;;;;1.60;0.30;;;;;;;27.93;59.03;102055.94;10460177;28;20057;-81
2023/05/28 10:24:27;;;;;;;0.30;0.28;;;;;;;29.19;56.51;102053.78;10451955;28;20139;-80
2023/05/28 10:29:37;;;;;;;0.28;0.22;;;;;;;29.12;52.40;102053.16;10477355;28;20143;-80
2023/05/28 10:34:39;;;;;;;0.20;0.20;;;;;;;28.15;54.87;102049.13;10454851;28;20052;-82
2023/05/28 10:39:45;;;;;;;0.57;0.50;;;;;;;28.62;56.01;102047.72;10461977;28;20044;-80
2023/05/28 10:44:59;;;;;;;0.35;0.15;;;;;;;31.35;56.45;102048.19;10453858;28;20044;-80
2023/05/28 10:50:12;;;;;;;0.55;0.40;;;;;;;29.69;56.69;102050.28;10484327;28;20581;-82
2023/05/28 10:55:19;;;;;;;0.23;0.20;;;;;;;30.62;55.88;102052.09;10453026;28;20104;-81
2023/05/28 11:00:24;;;;;;;4.78;0.80;;;;;;;29.68;57.51;102056.50;10465496;28;20053;-82
2023/05/28 11:05:26;;;;;;;8.77;0.60;;;;;;;29.41;57.29;102051.28;10446437;28;20522;-81
2023/05/28 11:10:28;;;;;;;0.35;0.28;;;;;;;30.52;58.05;102046.31;10442505;28;20079;-82
2023/05/28 11:15:32;;;;;;;0.20;0.10;;;;;;;29.10;56.64;102059.44;10437709;28;20041;-82
2023/05/28 11:20:35;;;;;;;2.13;1.15;;;;;;;29.27;54.65;102049.09;10437912;28;20090;-82
2023/05/28 11:25:41;;;;;;;0.08;0.08;;;;;;;30.14;56.85;102040.69;10452389;28;20049;-82
2023/05/28 11:30:44;;;;;;;0.22;0.20;;;;;;;27.90;57.33;102056.03;10451142;28;20394;-83
2023/05/28 11:35:56;;;;;;;0.35;0.35;;;;;;;30.54;54.80;102041.75;10435080;28;20049;-81
2023/05/28 11:41:01;;;;;;;0.47;0.45;;;;;;;30.19;54.36;102048.47;10457824;28;20052;-81
2023/05/28 11:46:05;;;;;;;0.15;0.15;;;;;;;30.65;53.89;102046.63;10440189;28;20488;-80
2023/05/28 11:51:07;;;;;;;0.03;0.03;;;;;;;31.72;51.13;102033.25;10476008;28;20044;-81
2023/05/28 11:56:10;;;;;;;0.32;0.32;;;;;;;29.79;50.88;102040.19;10450216;28;20056;-81
2023/05/28 12:01:15;;;;;;;1.80;0.30;;;;;;;30.57;50.87;102032.78;10447883;28;20460;-82
2023/05/28 12:06:18;;;;;;;0.40;0.32;;;;;;;30.90;49.20;102040.31;10436589;28;20090;-81
2023/05/28 12:11:40;;;;;;;0.30;0.28;;;;;;;31.15;47.12;102034.84;10463697;28;20399;-81
2023/05/28 12:16:48;;;;;;;2.17;0.30;;;;;;;29.74;48.33;102040.38;10442127;28;20138;-86
2023/05/28 12:21:50;;;;;;;0.68;0.52;;;;;;;31.81;46.96;102027.50;10445635;28;20040;-83
2023/05/28 12:26:52;;;;;;;0.08;0.08;;;;;;;32.53;46.91;102025.03;10444971;28;20495;-82
2023/05/28 12:31:58;;;;;;;0.47;0.47;;;;;;;30.87;46.01;102037.78;10438641;28;20127;-83
2023/05/28 12:37:00;;;;;;;0.15;0.15;;;;;;;30.13;48.43;102025.66;10458068;28;20053;-83
2023/05/28 12:42:03;;;;;;;2.35;0.63;;;;;;;30.27;45.41;102024.25;10456773;28;20048;-83
2023/05/28 12:47:05;;;;;;;0.55;0.32;;;;;;;31.30;48.55;102016.44;10451791;28;20401;-83
2023/05/28 12:52:07;;;;;;;8.48;0.28;;;;;;;31.19;47.73;102014.28;10440514;28;20045;-82
2023/05/28 12:57:08;;;;;;;0.00;0.00;;;;;;;31.19;45.05;102011.59;10450961;28;20041;-83
2023/05/28 13:02:10;;;;;;;2.08;0.20;;;;;;;30.32;44.01;102011.63;10468092;28;20056;-82
2023/05/28 13:07:13;;;;;;;1.45;0.43;;;;;;;30.53;44.23;102015.25;10446794;28;20059;-82
2023/05/28 13:12:14;;;;;;;0.43;0.35;;;;;;;31.37;44.38;101995.75;10450241;28;20202;-82
2023/05/28 13:17:16;;;;;;;0.32;0.25;;;;;;;30.66;42.48;102000.50;10440341;28;20037;-83
2023/05/28 13:22:17;;;;;;;0.45;0.45;;;;;;;32.45;44.70;101984.53;10472895;28;20143;-82
2023/05/28 13:27:19;;;;;;;2.70;0.70;;;;;;;30.65;44.82;101996.09;10447808;28;20056;-82
2023/05/28 13:32:21;;;;;;;0.88;0.32;;;;;;;30.24;42.74;101988.03;10475749;28;20048;-83
2023/05/28 13:37:23;;;;;;;1.70;0.17;;;;;;;31.73;43.38;101981.72;10467572;28;20069;-81
2023/05/28 13:42:25;;;;;;;0.20;0.15;;;;;;;31.98;42.65;101975.22;10437521;28;20049;-81
2023/05/28 13:47:27;;;;;;;0.57;0.22;;;;;;;31.62;42.51;101975.03;10455318;28;20073;-81
2023/05/28 13:52:33;;;;;;;0.30;0.30;;;;;;;31.16;42.58;101979.81;10446481;28;20083;-82
2023/05/28 13:57:35;;;;;;;0.47;0.38;;;;;;;30.45;42.79;101974.78;10443412;28;20049;-81
2023/05/28 14:02:36;;;;;;;2.40;1.13;;;;;;;29.84;43.57;101969.19;10443534;28;20037;-84
2023/05/28 14:07:40;;;;;;;0.30;0.30;;;;;;;30.37;44.15;101973.31;10440912;28;20045;-82
2023/05/28 14:12:41;;;;;;;0.40;0.30;;;;;;;30.44;44.93;101967.72;10448440;28;20055;-82
2023/05/28 14:17:43;;;;;;;0.30;0.20;;;;;;;30.57;44.14;101966.31;10435839;28;20051;-82
2023/05/28 14:22:45;;;;;;;0.40;0.30;;;;;;;29.46;45.13;101967.94;10435400;28;20053;-80
2023/05/28 14:27:46;;;;;;;0.88;0.43;;;;;;;30.45;43.99;101964.16;10435299;28;20041;-82
2023/05/28 14:33:04;;;;;;;1.40;0.47;;;;;;;30.15;46.67;101967.13;10467392;28;20049;-82
2023/05/28 14:38:05;;;;;;;0.10;0.10;;;;;;;30.13;47.24;101958.34;10449793;28;20041;-79
2023/05/28 14:43:07;;;;;;;0.30;0.30;;;;;;;30.48;45.69;101958.72;10464815;28;20049;-81
2023/05/28 14:48:09;;;;;;;0.22;0.22;;;;;;;30.36;43.96;101954.75;10459185;28;20040;-81
2023/05/28 14:53:11;;;;;;;0.10;0.10;;;;;;;30.82;45.26;101960.84;10454803;28;20045;-83
2023/05/28 14:58:12;;;;;;;0.70;0.43;;;;;;;30.89;41.94;101950.78;10456150;28;20135;-83
2023/05/28 15:03:14;;;;;;;0.80;0.80;;;;;;;30.25;45.73;101956.97;10476579;28;20055;-81
2023/05/28 15:08:16;;;;;;;1.58;1.10;;;;;;;30.15;47.03;101962.69;10441422;28;20048;-83
2023/05/28 15:13:18;;;;;;;0.15;0.10;;;;;;;29.96;45.29;101951.94;10457979;28;20045;-82
2023/05/28 15:18:20;;;;;;;0.77;0.47;;;;;;;30.47;47.05;101946.34;10457653;28;20047;-83
2023/05/28 15:23:22;;;;;;;0.50;0.38;;;;;;;29.41;46.31;101950.44;10488056;28;20053;-83
2023/05/28 15:28:24;;;;;;;0.30;0.28;;;;;;;29.89;45.62;101945.09;10480995;28;20049;-83
2023/05/28 15:33:25;;;;;;;1.25;0.38;;;;;;;30.15;44.72;101945.88;10444286;28;20056;-82
2023/05/28 15:38:27;;;;;;;0.13;0.10;;;;;;;30.43;47.44;101948.25;10458721;28;20037;-81
2023/05/28 15:43:29;;;;;;;0.20;0.20;;;;;;;29.18;47.84;101950.34;10459113;28;20052;-82
2023/05/28 15:48:31;;;;;;;0.25;0.25;;;;;;;28.90;47.32;101941.59;10475347;28;20099;-82
2023/05/28 15:53:33;;;;;;;0.63;0.63;;;;;;;28.53;47.93;101947.28;10485723;28;20049;-82
2023/05/28 15:58:34;;;;;;;0.15;0.08;;;;;;;28.93;48.05;101945.94;10469369;28;20139;-82
2023/05/28 16:03:36;;;;;;;0.47;0.30;;;;;;;29.12;48.47;101949.66;10446817;28;20052;-81
2023/05/28 16:08:39;;;;;;;0.57;0.20;;;;;;;28.81;46.84;101950.75;10457147;28;20056;-82
2023/05/28 16:13:42;;;;;;;0.30;0.30;;;;;;;28.47;47.18;101945.69;10465404;28;20068;-82
2023/05/28 16:18:44;;;;;;;0.60;0.40;;;;;;;28.63;46.12;101946.06;10444767;28;20048;-83
2023/05/28 16:23:46;;;;;;;2.65;0.75;;;;;;;29.17;46.44;101941.56;10470276;28;20037;-83
2023/05/28 16:28:48;;;;;;;2.33;1.45;;;;;;;29.09;45.14;101948.91;10454347;28;20152;-80
2023/05/28 16:33:49;;;;;;;0.03;0.03;;;;;;;29.91;43.83;101944.13;10477884;28;20053;-82
2023/05/28 16:38:53;;;;;;;6.75;0.73;;;;;;;29.04;43.66;101948.22;10445193;28;20049;-82
2023/05/28 16:43:55;;;;;;;0.45;0.35;;;;;;;29.11;44.03;101942.63;10447219;28;20048;-83
2023/05/28 16:55:55;;;;;;;7.32;2.28;;;;;;;29.20;42.93;101940.56;10466650;28;20029;-82
2023/05/28 17:00:57;;;;;;;0.45;0.28;;;;;;;29.16;41.95;101933.63;10447183;28;20053;-81
2023/05/28 17:05:59;;;;;;;0.65;0.32;;;;;;;28.80;42.93;101935.75;10469914;28;20518;-82
2023/05/28 17:11:00;;;;;;;0.65;0.52;;;;;;;28.65;41.96;101938.91;10447040;28;20567;-81
2023/05/28 17:16:02;;;;;;;0.20;0.20;;;;;;;29.40;42.52;101939.88;10460383;28;20048;-83
2023/05/28 17:21:04;;;;;;;0.68;0.68;;;;;;;28.43;40.64;101939.63;10451146;28;20135;-82
2023/05/28 17:26:06;;;;;;;1.73;1.10;;;;;;;27.61;41.86;101949.19;10446173;28;20507;-83
2023/05/28 17:31:07;;;;;;;0.25;0.20;;;;;;;27.24;50.92;101967.81;10454459;28;20045;-81
2023/05/28 17:36:09;;;;;;;0.10;0.10;;;;;;;26.78;54.16;101971.69;10468031;28;20067;-84
2023/05/28 17:41:11;;;;;;;0.77;0.57;;;;;;;26.72;56.89;101992.94;10467554;28;20044;-82
2023/05/28 17:46:13;;;;;;;0.57;0.20;;;;;;;26.82;59.37;101997.16;10460320;28;20048;-80
2023/05/28 17:51:14;;;;;;;0.25;0.10;;;;;;;25.91;61.63;101999.19;10436872;28;20072;-82
2023/05/28 17:56:16;;;;;;;0.32;0.28;;;;;;;26.40;63.24;102006.03;10436574;28;20208;-81
2023/05/28 18:01:17;;;;;;;0.70;0.50;;;;;;;25.46;65.00;102015.91;10481323;28;20664;-82
2023/05/28 18:06:20;;;;;;;0.63;0.25;;;;;;;25.97;66.39;102018.38;10451834;28;20056;-82
2023/05/28 18:11:22;;;;;;;0.30;0.28;;;;;;;25.21;68.91;102021.56;10468646;28;20120;-83
2023/05/28 18:16:23;;;;;;;0.00;0.00;;;;;;;24.82;70.52;102024.00;10468909;28;20045;-85
2023/05/28 18:21:25;;;;;;;1.92;1.38;;;;;;;24.92;71.28;102036.13;10437768;28;20057;-82
2023/05/28 18:26:26;;;;;;;0.10;0.10;;;;;;;24.88;72.15;102031.81;10461816;28;20063;-82
2023/05/28 18:31:28;;;;;;;0.30;0.22;;;;;;;24.55;74.02;102041.94;10468905;28;20132;-82
2023/05/28 18:36:30;;;;;;;0.85;0.50;;;;;;;24.67;74.38;102057.63;10463143;28;20541;-82
2023/05/28 18:41:35;;;;;;;0.00;0.00;;;;;;;24.37;75.92;102057.13;10443876;28;20490;-82
2023/05/28 18:46:36;;;;;;;1.50;1.23;;;;;;;24.24;79.84;102063.44;10446753;28;20047;-82
2023/05/28 18:51:38;;;;;;;0.80;0.63;;;;;;;24.26;80.90;102071.31;10465026;28;20415;-82
2023/05/28 18:56:40;;;;;;;0.20;0.20;;;;;;;23.59;83.63;102078.19;10460902;28;20060;-82
2023/05/28 19:01:42;;;;;;;0.03;0.03;;;;;;;23.37;85.09;102080.13;10458285;28;20672;-82
2023/05/28 19:06:44;;;;;;;0.75;0.30;;;;;;;23.66;85.00;102086.88;10451968;28;20591;-82
2023/05/28 19:11:45;;;;;;;0.35;0.10;;;;;;;23.43;85.86;102095.84;10450912;28;20037;-82
2023/05/28 19:16:47;;;;;;;0.00;0.00;;;;;;;22.99;87.30;102099.69;10442933;28;20112;-83
2023/05/28 19:21:49;;;;;;;0.43;0.25;;;;;;;22.77;89.26;102106.84;10460307;28;20071;-83
2023/05/28 19:26:52;;;;;;;0.45;0.35;;;;;;;22.90;88.65;102120.75;10433206;28;20411;-81
2023/05/28 19:31:54;;;;;;;0.30;0.30;;;;;;;23.32;87.69;102113.50;10453803;28;20630;-81
2023/05/28 19:36:56;;;;;;;0.40;0.15;;;;;;;22.71;88.89;102126.13;10451496;28;20078;-81
2023/05/28 19:41:58;;;;;;;0.03;0.03;;;;;;;22.59;89.09;102126.22;10427051;28;20046;-82
2023/05/28 19:46:59;;;;;;;1.23;0.55;;;;;;;22.75;88.71;102133.09;10444471;28;20034;-81
2023/05/28 19:52:01;;;;;;;0.55;0.40;;;;;;;22.38;88.73;102143.75;10453530;28;20055;-81
2023/05/28 19:57:03;;;;;;;0.20;0.20;;;;;;;22.24;90.24;102145.56;10451071;28;20452;-83
2023/05/28 20:02:06;;;;;;;4.47;0.30;;;;;;;22.34;89.45;102158.63;10469196;28;20045;-83
2023/05/28 20:07:08;;;;;;;0.65;0.65;;;;;;;21.92;91.79;102170.13;10447191;28;20118;-81
2023/05/28 20:12:10;;;;;;;0.00;0.00;;;;;;;22.01;90.69;102172.72;10442765;28;20041;-83
2023/05/28 20:17:13;;;;;;;0.43;0.30;;;;;;;21.77;89.96;102187.63;10445989;28;20053;-81
2023/05/28 20:22:15;;;;;;;0.10;0.10;;;;;;;21.55;90.18;102182.38;10457255;28;20498;-80
2023/05/28 20:27:16;;;;;;;0.63;0.45;;;;;;;21.63;89.07;102195.50;10449827;28;20044;-81
2023/05/28 20:32:21;;;;;;;0.40;0.38;;;;;;;21.44;89.25;102199.81;10431681;28;20056;-81
2023/05/28 20:37:23;;;;;;;0.30;0.30;;;;;;;21.20;89.12;102191.03;10468321;28;20048;-82
2023/05/28 20:42:26;;;;;;;0.30;0.28;;;;;;;21.12;90.13;102211.09;10453922;28;20560;-82
2023/05/28 20:47:28;;;;;;;0.20;0.20;;;;;;;21.55;89.66;102210.31;10440884;28;20091;-81
2023/05/28 20:52:30;;;;;;;0.40;0.30;;;;;;;21.82;88.73;102206.88;10441528;28;20045;-81
2023/05/28 20:57:42;;;;;;;0.70;0.45;;;;;;;21.31;92.22;102209.41;10437768;28;20044;-82
2023/05/28 21:02:45;;;;;;;0.20;0.20;;;;;;;21.00;96.41;102224.19;10462932;28;20041;-82
2023/05/28 21:07:47;;;;;;;1.23;0.95;;;;;;;21.12;95.91;102221.59;10450987;28;20072;-81
2023/05/28 21:12:48;;;;;;;1.17;0.95;;;;;;;20.56;97.96;102218.72;10455631;28;20048;-82
2023/05/28 21:17:50;;;;;;;0.40;0.30;;;;;;;21.13;95.42;102223.34;10438800;28;20049;-81
2023/05/28 21:22:52;;;;;;;0.47;0.30;;;;;;;20.82;98.02;102220.59;10443860;28;20041;-81
2023/05/28 21:27:54;;;;;;;0.50;0.20;;;;;;;20.86;96.39;102216.25;10454449;28;20500;-82
2023/05/28 21:32:56;;;;;;;0.28;0.20;;;;;;;20.24;100.00;102229.88;10447615;28;20041;-82
2023/05/28 21:37:57;;;;;;;0.77;0.35;;;;;;;20.10;100.00;102234.13;10447450;28;20037;-82
2023/05/28 21:42:59;;;;;;;0.00;0.00;;;;;;;20.23;100.00;102235.97;10455117;28;20044;-82
2023/05/28 21:48:00;;;;;;;0.47;0.35;;;;;;;20.40;100.00;102219.50;10454042;28;20049;-82
2023/05/28 21:53:03;;;;;;;0.80;0.60;;;;;;;20.32;100.00;102218.56;10445567;28;20036;-82
2023/05/28 21:58:04;;;;;;;0.35;0.35;;;;;;;20.38;100.00;102229.06;10442980;28;20056;-82
2023/05/28 22:03:06;;;;;;;0.00;0.00;;;;;;;20.14;100.00;102246.38;10443749;28;20056;-82
2023/05/28 22:08:08;;;;;;;3.20;1.10;;;;;;;19.83;100.00;102240.88;10470791;28;20125;-82
2023/05/28 22:13:09;;;;;;;0.15;0.15;;;;;;;19.50;100.00;102234.47;10455788;28;20427;-82
2023/05/28 22:18:13;;;;;;;0.85;0.25;;;;;;;19.47;100.00;102244.91;10435362;28;20045;-82
2023/05/28 22:23:17;;;;;;;1.17;0.40;;;;;;;19.20;100.00;102238.50;10431755;28;20060;-84
2023/05/28 22:28:19;;;;;;;0.10;0.10;;;;;;;19.26;100.00;102233.34;10429468;28;20500;-82
2023/05/28 22:33:20;;;;;;;3.53;0.45;;;;;;;18.83;100.00;102238.91;10437974;28;20056;-81
2023/05/28 22:38:22;;;;;;;2.30;0.77;;;;;;;19.11;100.00;102236.66;10438623;28;20048;-82
2023/05/28 22:43:24;;;;;;;0.28;0.10;;;;;;;18.68;100.00;102238.72;10431753;28;20500;-83
2023/05/28 22:48:26;;;;;;;0.00;0.00;;;;;;;18.69;100.00;102241.31;10438350;28;20058;-81
2023/05/28 22:53:27;;;;;;;0.57;0.32;;;;;;;18.21;100.00;102258.00;10455199;28;20582;-82
2023/05/28 22:58:29;;;;;;;0.43;0.40;;;;;;;18.06;100.00;102264.72;10446011;28;20059;-82
2023/05/28 23:03:32;;;;;;;0.20;0.20;;;;;;;18.31;100.00;102269.50;10444684;28;20141;-82
2023/05/28 23:08:34;;;;;;;0.00;0.00;;;;;;;18.15;100.00;102289.22;10448799;28;20148;-81
2023/05/28 23:13:35;;;;;;;0.15;0.13;;;;;;;18.11;100.00;102295.25;10457534;28;20049;-82